Time;durP1;ratioP1;P1;durP2;ratioP2;P2;SDS_P1;SDS_P2;PMS_P1;PMS_P2;Temp;Humidity;BMP_temperature;BMP_pressure;BME280_temperature;BME280_humidity;BME280_pressure;Samples;Min_cycle;Max_cycle;Signal;HPM_P1;HPM_P2
2023/08/31 00:00:09;;;;;;;4.78;2.05;;;12.00;99.90;;;;;;5033839;28;20022;-51
2023/08/31 00:02:35;;;;;;;3.95;1.98;;;12.00;99.90;;;;;;5033176;28;20037;-52
2023/08/31 00:05:01;;;;;;;4.38;2.20;;;12.00;99.90;;;;;;5033712;28;20024;-50
2023/08/31 00:07:26;;;;;;;5.63;2.30;;;12.00;99.90;;;;;;5033297;28;20033;-51
2023/08/31 00:09:52;;;;;;;5.57;3.00;;;12.00;99.90;;;;;;5033284;28;20030;-50
2023/08/31 00:12:17;;;;;;;4.22;1.73;;;12.00;99.90;;;;;;5033217;28;20034;-50
2023/08/31 00:14:43;;;;;;;6.05;2.00;;;12.00;99.90;;;;;;5033327;28;20026;-49
2023/08/31 00:17:09;;;;;;;4.85;1.95;;;11.90;99.90;;;;;;5033437;28;20040;-50
2023/08/31 00:19:35;;;;;;;6.57;2.60;;;11.90;99.90;;;;;;5033283;28;20079;-54
2023/08/31 00:22:01;;;;;;;4.65;2.00;;;11.90;99.90;;;;;;5033168;28;20033;-53
2023/08/31 00:24:28;;;;;;;4.75;1.98;;;11.90;99.90;;;;;;5033289;28;20120;-54
2023/08/31 00:26:53;;;;;;;4.50;2.00;;;12.00;99.90;;;;;;5033408;28;20033;-51
2023/08/31 00:29:19;;;;;;;4.40;2.63;;;12.00;99.90;;;;;;5033090;28;20421;-53
2023/08/31 00:31:48;;;;;;;5.75;2.30;;;12.00;99.90;;;;;;5033128;28;20040;-53
2023/08/31 00:34:17;;;;;;;6.03;2.08;;;12.00;99.90;;;;;;5015483;28;20131;-54
2023/08/31 00:36:43;;;;;;;5.53;2.20;;;12.00;99.90;;;;;;5033475;28;20036;-53
2023/08/31 00:39:10;;;;;;;3.83;2.22;;;11.90;99.90;;;;;;5015414;28;20059;-53
2023/08/31 00:41:38;;;;;;;8.23;2.38;;;11.90;99.90;;;;;;5015065;28;20489;-55
2023/08/31 00:44:04;;;;;;;6.35;2.70;;;11.90;99.90;;;;;;5014716;28;20116;-50
2023/08/31 00:46:34;;;;;;;5.97;2.60;;;11.90;99.90;;;;;;5014645;28;20130;-51
2023/08/31 00:49:00;;;;;;;6.47;2.70;;;12.00;99.90;;;;;;5014731;28;20032;-49
2023/08/31 00:51:26;;;;;;;5.70;2.42;;;12.00;99.90;;;;;;5014482;28;20480;-50
2023/08/31 00:53:55;;;;;;;4.95;2.35;;;12.00;99.90;;;;;;5014497;28;20037;-54
2023/08/31 00:56:21;;;;;;;5.03;2.35;;;12.10;99.90;;;;;;5032661;28;20120;-50
2023/08/31 00:58:47;;;;;;;6.28;2.75;;;12.10;99.90;;;;;;5032097;28;20025;-54
2023/08/31 01:01:30;;;;;;;5.70;2.50;;;12.10;99.90;;;;;;5032437;28;20030;-50
2023/08/31 01:04:18;;;;;;;6.45;2.30;;;12.20;99.90;;;;;;5014347;28;20030;-50
2023/08/31 01:06:52;;;;;;;7.43;2.88;;;12.20;99.90;;;;;;5014445;28;20084;-49
2023/08/31 01:09:23;;;;;;;7.50;2.67;;;12.20;99.90;;;;;;5032017;28;20033;-49
2023/08/31 01:11:56;;;;;;;5.47;2.72;;;12.20;99.90;;;;;;5014189;28;20114;-50
2023/08/31 01:14:25;;;;;;;6.50;2.28;;;12.20;99.90;;;;;;5014349;28;20128;-49
2023/08/31 01:16:53;;;;;;;5.10;2.42;;;12.20;99.90;;;;;;5014172;28;20038;-51
2023/08/31 01:19:46;;;;;;;3.58;2.10;;;12.20;99.90;;;;;;5031992;28;20128;-49
2023/08/31 01:22:24;;;;;;;5.93;2.00;;;12.30;99.90;;;;;;5013884;28;20025;-50
2023/08/31 01:24:51;;;;;;;5.75;2.10;;;12.40;99.90;;;;;;5013967;28;20041;-53
2023/08/31 01:27:17;;;;;;;5.55;2.10;;;12.40;99.90;;;;;;5014177;28;20029;-50
2023/08/31 01:29:44;;;;;;;5.03;2.17;;;12.30;99.90;;;;;;5031837;28;20079;-51
2023/08/31 01:32:10;;;;;;;6.80;2.00;;;12.30;99.90;;;;;;5013855;28;20514;-51
2023/08/31 01:34:38;;;;;;;4.45;2.10;;;12.20;99.90;;;;;;5031416;28;20371;-53
2023/08/31 01:37:21;;;;;;;7.75;2.20;;;12.30;99.90;;;;;;5031255;28;20104;-50
2023/08/31 01:39:59;;;;;;;7.55;2.20;;;12.30;99.90;;;;;;5013445;28;20061;-49
2023/08/31 01:42:27;;;;;;;6.70;2.20;;;12.30;99.90;;;;;;5030290;28;20048;-51
2023/08/31 01:44:55;;;;;;;3.40;2.03;;;12.20;99.90;;;;;;5013350;28;20455;-50
2023/08/31 01:47:21;;;;;;;4.63;2.53;;;12.20;99.90;;;;;;5031522;28;20100;-51
2023/08/31 01:49:47;;;;;;;6.30;2.42;;;12.20;99.90;;;;;;5031223;28;20486;-51
2023/08/31 01:52:13;;;;;;;5.63;2.25;;;12.10;99.90;;;;;;5013326;28;20037;-49
2023/08/31 01:54:38;;;;;;;5.78;2.47;;;12.10;99.90;;;;;;5013320;28;20036;-49
2023/08/31 01:57:06;;;;;;;8.98;2.92;;;12.10;99.90;;;;;;5013375;28;20472;-52
2023/08/31 01:59:33;;;;;;;5.40;2.42;;;12.00;99.90;;;;;;5013587;28;20482;-53
2023/08/31 02:01:59;;;;;;;4.85;2.78;;;12.10;99.90;;;;;;5013186;28;20026;-54
2023/08/31 02:04:25;;;;;;;5.55;2.35;;;12.00;99.90;;;;;;5013571;28;20044;-52
2023/08/31 02:06:50;;;;;;;5.85;2.28;;;12.00;99.90;;;;;;5031147;28;20034;-50
2023/08/31 02:09:16;;;;;;;5.20;1.98;;;12.00;99.90;;;;;;5013075;28;20029;-49
2023/08/31 02:11:42;;;;;;;4.75;2.30;;;11.90;99.90;;;;;;5013296;28;20573;-49
2023/08/31 02:14:07;;;;;;;5.75;2.40;;;12.00;99.90;;;;;;5013603;28;20061;-52
2023/08/31 02:16:34;;;;;;;5.70;2.60;;;12.00;99.90;;;;;;5031337;28;20061;-52
2023/08/31 02:19:00;;;;;;;5.10;2.15;;;12.00;99.90;;;;;;5013339;28;20068;-51
2023/08/31 02:21:25;;;;;;;6.00;2.28;;;12.00;99.90;;;;;;5030966;28;20053;-50
2023/08/31 02:23:52;;;;;;;5.45;2.45;;;11.90;99.90;;;;;;5030887;28;20147;-52
2023/08/31 02:26:18;;;;;;;5.25;2.22;;;11.90;99.90;;;;;;5030811;28;20155;-49
2023/08/31 02:28:45;;;;;;;4.95;2.50;;;11.90;99.90;;;;;;5012733;28;20034;-49
2023/08/31 02:31:14;;;;;;;4.40;2.35;;;11.90;99.90;;;;;;5031352;28;20044;-49
2023/08/31 02:33:40;;;;;;;6.35;2.60;;;11.80;99.90;;;;;;5012863;28;20414;-50
2023/08/31 02:36:05;;;;;;;4.93;2.78;;;11.80;99.90;;;;;;5030799;28;20037;-48
2023/08/31 02:38:32;;;;;;;4.55;2.50;;;11.90;99.90;;;;;;5012796;28;20409;-50
2023/08/31 02:40:57;;;;;;;5.80;2.10;;;11.90;99.90;;;;;;5030685;28;20457;-49
2023/08/31 02:43:24;;;;;;;5.03;2.03;;;11.80;99.90;;;;;;5030405;28;20025;-50
2023/08/31 02:45:50;;;;;;;5.88;2.45;;;11.90;99.90;;;;;;5030902;28;20064;-49
2023/08/31 02:48:15;;;;;;;4.25;2.30;;;11.90;99.90;;;;;;5012673;28;20490;-49
2023/08/31 02:50:41;;;;;;;6.97;2.20;;;11.90;99.90;;;;;;5012437;28;20041;-49
2023/08/31 02:53:07;;;;;;;6.90;2.50;;;11.80;99.90;;;;;;5031415;28;20025;-50
2023/08/31 02:55:33;;;;;;;4.47;2.13;;;11.80;99.90;;;;;;5033788;28;20025;-49
2023/08/31 02:57:59;;;;;;;4.97;2.60;;;11.80;99.90;;;;;;5033615;28;20030;-52
2023/08/31 03:00:26;;;;;;;4.45;2.28;;;11.80;99.90;;;;;;5016360;28;20068;-53
2023/08/31 03:02:52;;;;;;;8.43;2.35;;;11.70;99.90;;;;;;5015975;28;20047;-51
2023/08/31 03:05:21;;;;;;;5.15;2.40;;;11.70;99.90;;;;;;5016467;28;20442;-49
2023/08/31 03:07:47;;;;;;;6.63;2.70;;;11.70;99.90;;;;;;5016188;28;20083;-52
2023/08/31 03:10:13;;;;;;;4.07;2.38;;;11.60;99.90;;;;;;5016159;28;20079;-52
2023/08/31 03:12:38;;;;;;;4.68;2.40;;;11.70;99.90;;;;;;5016138;28;20037;-49
2023/08/31 03:15:06;;;;;;;4.63;2.42;;;11.70;99.90;;;;;;5033845;28;20613;-53
2023/08/31 03:17:31;;;;;;;4.78;2.13;;;11.70;99.90;;;;;;5033981;28;20037;-51
2023/08/31 03:19:57;;;;;;;4.28;2.40;;;11.60;99.90;;;;;;5016201;28;20444;-50
2023/08/31 03:22:23;;;;;;;3.92;2.05;;;11.60;99.90;;;;;;5015671;28;20033;-51
2023/08/31 03:24:48;;;;;;;6.32;2.33;;;11.60;99.90;;;;;;5016016;28;20028;-54
2023/08/31 03:27:15;;;;;;;5.03;2.38;;;11.60;99.90;;;;;;5033871;28;20087;-51
2023/08/31 03:29:41;;;;;;;4.93;2.33;;;11.60;99.90;;;;;;5033629;28;20036;-53
2023/08/31 03:32:07;;;;;;;4.70;2.38;;;11.60;99.90;;;;;;5033693;28;20034;-49
2023/08/31 03:34:33;;;;;;;4.95;2.60;;;11.60;99.90;;;;;;5015807;28;20088;-53
2023/08/31 03:36:59;;;;;;;5.28;2.35;;;11.60;99.90;;;;;;5033210;28;20091;-53
2023/08/31 03:39:25;;;;;;;5.55;2.53;;;11.60;99.90;;;;;;5015345;28;20037;-49
2023/08/31 03:41:51;;;;;;;6.50;2.28;;;11.60;99.90;;;;;;5033228;28;20414;-52
2023/08/31 03:44:17;;;;;;;5.93;2.22;;;11.60;99.90;;;;;;5015586;28;20080;-53
2023/08/31 03:46:43;;;;;;;7.32;2.50;;;11.70;99.90;;;;;;5015892;28;20026;-51
2023/08/31 03:49:09;;;;;;;6.43;2.38;;;11.70;99.90;;;;;;5015237;28;20528;-52
2023/08/31 03:51:34;;;;;;;4.53;2.40;;;11.60;99.90;;;;;;5015464;28;20113;-53
2023/08/31 03:54:01;;;;;;;4.57;2.38;;;11.60;99.90;;;;;;5033291;28;20045;-51
2023/08/31 03:56:27;;;;;;;4.57;2.60;;;11.60;99.90;;;;;;5015564;28;20524;-49
2023/08/31 03:58:53;;;;;;;5.18;2.22;;;11.60;99.90;;;;;;5015212;28;20100;-54
2023/08/31 04:01:19;;;;;;;7.30;2.40;;;11.60;99.90;;;;;;5033611;28;20112;-54
2023/08/31 04:03:45;;;;;;;4.25;2.30;;;11.60;99.90;;;;;;5015168;28;20056;-50
2023/08/31 04:06:11;;;;;;;4.78;2.65;;;11.50;99.90;;;;;;5032954;28;20037;-53
2023/08/31 04:08:40;;;;;;;5.90;2.88;;;11.60;99.90;;;;;;5015403;28;20467;-54
2023/08/31 04:11:05;;;;;;;6.93;2.70;;;11.60;99.90;;;;;;5015495;28;20061;-51
2023/08/31 04:13:31;;;;;;;4.65;2.30;;;11.60;99.90;;;;;;5033041;28;20088;-53
2023/08/31 04:15:57;;;;;;;4.00;2.25;;;11.60;99.90;;;;;;5015383;28;20049;-52
2023/08/31 04:18:22;;;;;;;4.75;2.28;;;11.60;99.90;;;;;;5015233;28;20443;-53
2023/08/31 04:20:50;;;;;;;6.23;1.90;;;11.60;99.90;;;;;;5015261;28;20025;-52
2023/08/31 04:23:19;;;;;;;3.95;2.00;;;11.60;99.90;;;;;;5033049;28;20052;-51
2023/08/31 04:25:46;;;;;;;4.70;2.43;;;11.60;99.90;;;;;;5032519;28;20029;-49
2023/08/31 04:28:11;;;;;;;3.83;1.90;;;11.60;99.90;;;;;;5032465;28;20025;-55
2023/08/31 04:30:37;;;;;;;4.97;2.13;;;11.50;99.90;;;;;;5032323;28;20504;-53
2023/08/31 04:33:04;;;;;;;4.87;1.83;;;11.50;99.90;;;;;;5031929;28;20033;-51
2023/08/31 04:35:31;;;;;;;3.80;2.10;;;11.50;99.90;;;;;;5032260;28;20454;-54
2023/08/31 04:37:57;;;;;;;3.90;1.97;;;11.50;99.90;;;;;;5032088;28;20034;-52
2023/08/31 04:40:24;;;;;;;5.27;2.40;;;11.50;99.90;;;;;;5014439;28;20029;-52
2023/08/31 04:42:50;;;;;;;4.10;2.20;;;11.50;99.90;;;;;;5031753;28;20521;-52
2023/08/31 04:45:16;;;;;;;8.93;2.50;;;11.50;99.90;;;;;;5014283;28;20032;-54
2023/08/31 04:47:42;;;;;;;5.07;2.67;;;11.40;99.90;;;;;;5031962;28;20037;-54
2023/08/31 04:50:08;;;;;;;4.43;2.30;;;11.50;99.90;;;;;;5031651;28;20029;-50
2023/08/31 04:52:34;;;;;;;4.70;2.00;;;11.50;99.90;;;;;;5031555;28;20029;-51
2023/08/31 04:55:01;;;;;;;5.10;1.97;;;11.50;99.90;;;;;;5032044;28;20168;-52
2023/08/31 04:57:28;;;;;;;3.90;2.10;;;11.50;99.90;;;;;;5031789;28;20036;-51
2023/08/31 04:59:54;;;;;;;4.72;2.30;;;11.50;99.90;;;;;;5031559;28;20029;-57
2023/08/31 05:02:19;;;;;;;4.43;2.40;;;11.50;99.90;;;;;;5031157;28;20025;-53
2023/08/31 05:04:45;;;;;;;4.63;2.53;;;11.50;99.90;;;;;;5031881;28;20042;-51
2023/08/31 05:07:10;;;;;;;6.20;2.40;;;11.50;99.90;;;;;;5031703;28;20040;-51
2023/08/31 05:09:36;;;;;;;6.13;2.73;;;11.50;99.90;;;;;;5031949;28;20032;-53
2023/08/31 05:12:02;;;;;;;5.87;2.77;;;11.50;99.90;;;;;;5031644;28;20395;-53
2023/08/31 05:14:28;;;;;;;5.33;2.70;;;11.50;99.90;;;;;;5031750;28;20034;-54
2023/08/31 05:16:54;;;;;;;4.33;2.20;;;11.50;99.90;;;;;;5030742;28;20056;-53
2023/08/31 05:19:20;;;;;;;6.07;2.50;;;11.60;99.90;;;;;;5030397;28;20025;-55
2023/08/31 05:21:46;;;;;;;4.87;2.67;;;11.50;99.90;;;;;;5030002;28;20052;-50
2023/08/31 05:24:11;;;;;;;5.90;2.90;;;11.60;99.90;;;;;;5030200;28;20526;-53
2023/08/31 05:26:37;;;;;;;7.23;3.03;;;11.60;99.90;;;;;;5032127;28;20029;-52
2023/08/31 05:29:05;;;;;;;7.13;3.00;;;11.60;99.90;;;;;;5031479;28;20029;-54
2023/08/31 05:31:31;;;;;;;6.32;2.80;;;11.60;99.90;;;;;;5031420;28;20036;-53
2023/08/31 05:33:57;;;;;;;4.63;2.40;;;11.60;99.90;;;;;;5031995;28;20475;-50
2023/08/31 05:36:23;;;;;;;5.07;2.33;;;11.60;99.90;;;;;;5032028;28;20041;-55
2023/08/31 05:38:51;;;;;;;6.27;2.63;;;11.50;99.90;;;;;;5031752;28;20136;-55
2023/08/31 05:41:17;;;;;;;6.07;2.90;;;11.60;99.90;;;;;;5032006;28;20029;-52
2023/08/31 05:43:42;;;;;;;6.37;2.83;;;11.60;99.90;;;;;;5031835;28;20044;-55
2023/08/31 05:46:08;;;;;;;11.13;4.50;;;11.70;99.90;;;;;;5032142;28;20029;-54
2023/08/31 05:48:36;;;;;;;19.87;8.50;;;11.70;99.90;;;;;;5031878;28;20281;-54
2023/08/31 05:51:03;;;;;;;6.00;3.30;;;11.70;99.90;;;;;;5031752;28;20035;-55
2023/08/31 05:53:29;;;;;;;7.53;3.47;;;11.70;99.90;;;;;;5031692;28;20033;-54
2023/08/31 05:56:03;;;;;;;8.50;3.08;;;11.70;99.90;;;;;;5031845;28;20018;-54
2023/08/31 05:58:35;;;;;;;4.93;2.93;;;11.80;99.90;;;;;;5031741;28;20072;-55
2023/08/31 06:01:02;;;;;;;7.97;3.50;;;11.70;99.90;;;;;;5031845;28;20041;-53
2023/08/31 06:03:29;;;;;;;5.83;3.23;;;11.80;99.90;;;;;;5031504;28;20025;-54
2023/08/31 06:05:58;;;;;;;6.93;3.60;;;11.90;99.90;;;;;;5031922;28;20033;-54
2023/08/31 06:08:23;;;;;;;8.15;4.85;;;11.90;99.90;;;;;;5031797;28;20028;-53
2023/08/31 06:10:49;;;;;;;7.90;3.70;;;11.90;99.90;;;;;;5031745;28;20021;-54
2023/08/31 06:13:15;;;;;;;10.10;3.30;;;12.00;99.90;;;;;;5031598;28;20497;-53
2023/08/31 06:15:41;;;;;;;7.97;4.10;;;12.20;99.90;;;;;;5031910;28;20104;-55
2023/08/31 06:18:07;;;;;;;8.45;3.33;;;12.30;99.90;;;;;;5031425;28;20501;-53
2023/08/31 06:20:32;;;;;;;12.85;3.75;;;12.30;99.90;;;;;;5031585;28;20079;-54
2023/08/31 06:22:59;;;;;;;7.38;3.40;;;12.40;99.90;;;;;;5029864;28;20103;-56
2023/08/31 06:25:25;;;;;;;4.70;2.85;;;12.60;99.90;;;;;;5030134;28;20076;-56
2023/08/31 06:27:51;;;;;;;6.55;3.40;;;12.80;99.90;;;;;;5013421;28;20498;-56
2023/08/31 06:30:18;;;;;;;7.07;3.33;;;13.00;99.90;;;;;;5033868;28;20490;-55
2023/08/31 06:32:44;;;;;;;5.75;2.97;;;13.10;99.90;;;;;;5033867;28;20041;-56
2023/08/31 06:35:12;;;;;;;6.80;3.28;;;13.20;99.90;;;;;;5034313;28;20033;-57
2023/08/31 06:37:38;;;;;;;6.55;2.92;;;13.40;99.90;;;;;;5034081;28;20459;-60
2023/08/31 06:40:09;;;;;;;7.50;3.10;;;13.50;99.90;;;;;;5034165;28;20371;-57
2023/08/31 06:42:36;;;;;;;6.50;3.28;;;13.60;99.90;;;;;;5033830;28;20034;-57
2023/08/31 06:45:03;;;;;;;5.35;2.92;;;13.70;99.90;;;;;;5034007;28;20029;-57
2023/08/31 06:47:29;;;;;;;7.40;2.90;;;13.80;99.90;;;;;;5033298;28;20505;-55
2023/08/31 06:49:54;;;;;;;5.53;2.97;;;14.00;99.90;;;;;;5033590;28;20037;-52
2023/08/31 06:52:20;;;;;;;6.38;3.10;;;14.00;99.90;;;;;;5033358;28;20033;-54
2023/08/31 06:54:46;;;;;;;7.20;2.88;;;14.10;99.90;;;;;;5033549;28;20029;-53
2023/08/31 06:57:11;;;;;;;21.17;9.82;;;14.20;99.90;;;;;;5033302;28;20036;-49
2023/08/31 06:59:37;;;;;;;18.50;8.30;;;14.10;99.90;;;;;;5033226;28;20026;-54
2023/08/31 07:02:02;;;;;;;20.92;9.70;;;14.20;99.90;;;;;;5033310;28;20056;-54
2023/08/31 07:04:28;;;;;;;11.52;4.68;;;14.30;99.90;;;;;;5015686;28;20075;-52
2023/08/31 07:06:54;;;;;;;5.68;2.33;;;14.30;99.90;;;;;;5033392;28;20409;-54
2023/08/31 07:09:19;;;;;;;5.63;2.40;;;14.40;99.90;;;;;;5033318;28;20033;-53
2023/08/31 07:11:45;;;;;;;6.15;2.38;;;14.50;99.90;;;;;;5033017;28;20030;-52
2023/08/31 07:14:10;;;;;;;6.07;2.80;;;14.60;99.90;;;;;;5032956;28;20552;-51
2023/08/31 07:16:36;;;;;;;4.53;2.30;;;14.60;99.90;;;;;;5033271;28;20036;-53
2023/08/31 07:19:02;;;;;;;3.60;1.88;;;14.70;99.90;;;;;;5033008;28;20029;-52
2023/08/31 07:21:28;;;;;;;4.30;2.05;;;14.90;99.90;;;;;;5033023;28;20025;-52
2023/08/31 07:23:54;;;;;;;4.85;2.58;;;15.00;99.90;;;;;;5032935;28;20371;-51
2023/08/31 07:26:20;;;;;;;5.47;2.03;;;15.10;99.90;;;;;;5032905;28;20025;-54
2023/08/31 07:28:46;;;;;;;5.18;2.10;;;15.20;99.90;;;;;;5032825;28;20083;-52
2023/08/31 07:31:12;;;;;;;4.05;1.90;;;15.20;99.90;;;;;;5033104;28;20130;-51
2023/08/31 07:33:38;;;;;;;4.15;1.90;;;15.30;99.90;;;;;;5033024;28;20124;-51
2023/08/31 07:36:05;;;;;;;3.95;1.95;;;15.40;99.90;;;;;;5032872;28;20033;-52
2023/08/31 07:38:31;;;;;;;3.65;1.92;;;15.40;99.90;;;;;;5032442;28;20026;-52
2023/08/31 07:40:57;;;;;;;3.03;1.75;;;15.30;99.90;;;;;;5032029;28;20063;-52
2023/08/31 07:43:23;;;;;;;3.75;1.45;;;15.40;99.90;;;;;;5032432;28;20061;-54
2023/08/31 07:45:49;;;;;;;5.72;1.98;;;15.40;99.90;;;;;;5032735;28;20025;-54
2023/08/31 07:48:15;;;;;;;3.63;1.48;;;15.50;99.90;;;;;;5032650;28;20040;-53
2023/08/31 07:50:41;;;;;;;2.85;1.60;;;15.50;99.90;;;;;;5032021;28;20124;-49
2023/08/31 07:53:07;;;;;;;17.15;6.85;;;15.60;99.90;;;;;;5032273;28;20029;-53
2023/08/31 07:55:33;;;;;;;12.50;5.45;;;15.70;99.90;;;;;;5032358;28;20026;-52
2023/08/31 07:58:00;;;;;;;11.07;5.40;;;15.70;99.90;;;;;;5032328;28;20087;-53
2023/08/31 08:00:26;;;;;;;6.60;3.45;;;15.90;99.90;;;;;;5032466;28;20036;-54
2023/08/31 08:02:52;;;;;;;6.63;2.35;;;15.80;99.90;;;;;;5031994;28;20021;-55
2023/08/31 08:05:18;;;;;;;6.70;2.70;;;15.90;99.90;;;;;;5032450;28;20025;-55
2023/08/31 08:07:43;;;;;;;4.03;1.95;;;16.00;99.90;;;;;;5032422;28;20049;-55
2023/08/31 08:10:11;;;;;;;4.25;1.45;;;16.10;99.90;;;;;;5032126;28;20524;-54
2023/08/31 08:12:45;;;;;;;3.55;2.17;;;16.10;99.90;;;;;;5032104;28;20565;-54
2023/08/31 08:15:11;;;;;;;3.83;1.85;;;16.20;99.90;;;;;;5032195;28;20482;-53
2023/08/31 08:17:36;;;;;;;3.70;1.85;;;16.20;99.90;;;;;;5031914;28;20037;-54
2023/08/31 08:20:03;;;;;;;4.43;1.80;;;16.30;99.90;;;;;;5031914;28;20138;-54
2023/08/31 08:22:29;;;;;;;4.35;1.80;;;16.50;99.90;;;;;;5031785;28;20112;-54
2023/08/31 08:24:54;;;;;;;6.80;2.80;;;16.60;99.90;;;;;;5032066;28;20112;-54
2023/08/31 08:27:20;;;;;;;5.90;1.90;;;16.70;99.90;;;;;;5031938;28;20259;-53
2023/08/31 08:29:46;;;;;;;4.63;2.00;;;16.80;99.90;;;;;;5031708;28;20177;-53
2023/08/31 08:32:12;;;;;;;5.72;2.30;;;16.70;99.90;;;;;;5031336;28;20041;-54
2023/08/31 08:34:38;;;;;;;4.15;1.58;;;16.80;99.90;;;;;;5014024;28;20111;-54
2023/08/31 08:37:04;;;;;;;3.88;2.05;;;16.80;99.90;;;;;;5031528;28;20033;-54
2023/08/31 08:39:30;;;;;;;2.85;1.30;;;16.90;99.90;;;;;;5031731;28;20025;-53
2023/08/31 08:41:58;;;;;;;4.75;1.75;;;17.00;99.90;;;;;;5031606;28;20034;-53
2023/08/31 08:44:27;;;;;;;3.55;1.58;;;17.10;99.90;;;;;;5013924;28;20033;-52
2023/08/31 08:46:57;;;;;;;5.35;2.28;;;17.20;99.90;;;;;;5031435;28;20117;-54
2023/08/31 08:49:23;;;;;;;3.67;1.70;;;17.30;99.90;;;;;;5031449;28;20506;-54
2023/08/31 08:51:50;;;;;;;3.55;1.80;;;17.40;99.90;;;;;;5030861;28;20034;-53
2023/08/31 08:54:18;;;;;;;4.28;1.73;;;17.40;99.90;;;;;;5031549;28;20037;-53
2023/08/31 08:56:43;;;;;;;4.75;1.70;;;17.50;99.90;;;;;;5031267;28;20026;-53
2023/08/31 08:59:13;;;;;;;4.53;1.70;;;17.50;99.90;;;;;;5031298;28;20414;-55
2023/08/31 09:01:39;;;;;;;4.35;1.65;;;17.60;99.90;;;;;;5031322;28;20482;-53
2023/08/31 09:04:06;;;;;;;5.15;1.80;;;17.70;99.90;;;;;;5031200;28;20371;-54
2023/08/31 09:06:32;;;;;;;5.40;1.75;;;17.60;99.90;;;;;;5031404;28;20056;-55
2023/08/31 09:08:58;;;;;;;3.63;1.67;;;17.60;99.90;;;;;;5031019;28;20112;-54
2023/08/31 09:11:24;;;;;;;3.90;1.80;;;17.60;99.90;;;;;;5030937;28;20080;-53
2023/08/31 09:13:51;;;;;;;2.58;1.58;;;17.50;99.90;;;;;;5031015;28;20536;-55
2023/08/31 09:16:30;;;;;;;6.57;1.90;;;17.40;99.90;;;;;;5031434;28;20037;-51
2023/08/31 09:18:59;;;;;;;5.10;2.67;;;17.50;99.90;;;;;;5030983;28;20033;-55
2023/08/31 09:21:37;;;;;;;;;;;17.50;99.90;;;;;;5031389;28;20087;-54
2023/08/31 09:24:07;;;;;;;3.00;1.65;;;17.60;99.90;;;;;;5013291;28;19920;-50
2023/08/31 09:26:37;;;;;;;5.88;1.60;;;17.60;99.90;;;;;;5030891;28;20041;-55
2023/08/31 09:29:05;;;;;;;5.07;2.05;;;17.60;99.90;;;;;;5030623;28;20139;-55
2023/08/31 09:31:31;;;;;;;4.38;1.85;;;17.60;99.90;;;;;;5030556;28;20532;-51
2023/08/31 09:33:56;;;;;;;4.72;1.65;;;17.70;99.90;;;;;;5030953;28;20116;-55
2023/08/31 09:36:23;;;;;;;4.88;1.48;;;17.90;99.90;;;;;;5030693;28;20033;-52
2023/08/31 09:38:48;;;;;;;2.15;1.33;;;18.10;99.90;;;;;;5030929;28;20466;-55
2023/08/31 09:41:15;;;;;;;3.03;1.48;;;18.30;99.90;;;;;;5030836;28;20021;-54
2023/08/31 09:43:41;;;;;;;4.68;1.60;;;18.30;99.90;;;;;;5030420;28;20500;-54
2023/08/31 09:46:09;;;;;;;2.58;1.20;;;18.30;99.90;;;;;;5031103;28;20155;-52
2023/08/31 09:48:37;;;;;;;3.70;1.30;;;18.40;99.90;;;;;;5030590;28;20037;-53
2023/08/31 09:51:04;;;;;;;3.22;1.23;;;18.50;99.90;;;;;;5030754;28;20095;-53
2023/08/31 09:53:31;;;;;;;2.53;1.10;;;18.70;99.90;;;;;;5030543;28;20036;-55
2023/08/31 09:55:57;;;;;;;2.47;0.90;;;18.80;99.90;;;;;;5031169;28;20033;-55
2023/08/31 09:58:23;;;;;;;2.13;1.20;;;18.90;99.90;;;;;;5030535;28;20033;-54
2023/08/31 10:00:50;;;;;;;3.50;1.23;;;18.80;99.90;;;;;;5030611;28;20500;-53
2023/08/31 10:03:16;;;;;;;2.90;1.00;;;18.70;99.90;;;;;;5032438;28;20029;-53
2023/08/31 10:05:47;;;;;;;3.63;1.20;;;18.70;99.90;;;;;;5034820;28;20021;-52
2023/08/31 10:08:13;;;;;;;3.35;1.02;;;18.70;99.90;;;;;;5035353;28;20421;-55
2023/08/31 10:10:39;;;;;;;2.03;1.15;;;18.70;99.90;;;;;;5034677;28;20036;-55
2023/08/31 10:13:05;;;;;;;4.05;1.63;;;18.60;99.90;;;;;;5034180;28;20049;-56
2023/08/31 10:15:35;;;;;;;5.45;1.23;;;18.50;99.90;;;;;;5034863;28;20044;-55
2023/08/31 10:18:05;;;;;;;2.50;1.23;;;18.50;99.90;;;;;;5034657;28;20069;-55
2023/08/31 10:20:33;;;;;;;2.90;1.30;;;18.40;99.90;;;;;;5034606;28;20096;-55
2023/08/31 10:23:03;;;;;;;4.88;1.00;;;18.50;99.90;;;;;;5034264;28;20030;-55
2023/08/31 10:25:50;;;;;;;4.20;1.40;;;18.80;99.90;;;;;;5034297;28;20025;-52
2023/08/31 10:28:19;;;;;;;4.60;1.20;;;19.20;99.90;;;;;;5034179;28;20088;-53
2023/08/31 10:31:04;;;;;;;2.67;1.25;;;19.10;99.90;;;;;;5034075;28;20044;-50
2023/08/31 10:33:41;;;;;;;3.80;1.33;;;19.20;99.90;;;;;;5033741;28;20045;-55
2023/08/31 10:36:15;;;;;;;5.35;1.63;;;19.50;99.90;;;;;;5034060;28;20026;-51
2023/08/31 10:38:44;;;;;;;2.70;1.27;;;19.80;99.90;;;;;;5033817;28;20033;-55
2023/08/31 10:41:09;;;;;;;;;;;19.70;99.90;;;;;;5034742;28;20493;-53
2023/08/31 10:43:55;;;;;;;7.10;1.52;;;19.70;99.90;;;;;;5033619;28;20002;-51
2023/08/31 10:46:35;;;;;;;2.05;1.00;;;19.70;99.90;;;;;;5033922;28;20073;-52
2023/08/31 10:49:10;;;;;;;5.95;1.25;;;19.80;99.90;;;;;;5033708;28;20028;-53
2023/08/31 10:51:41;;;;;;;5.93;1.17;;;20.00;99.90;;;;;;5033565;28;20234;-54
2023/08/31 10:54:15;;;;;;;3.67;1.33;;;20.10;99.90;;;;;;5033545;28;20052;-52
2023/08/31 10:57:00;;;;;;;5.07;1.38;;;20.20;99.90;;;;;;5033399;28;20037;-54
2023/08/31 10:59:50;;;;;;;10.40;3.45;;;20.10;99.90;;;;;;5033373;28;20025;-54
2023/08/31 11:02:31;;;;;;;3.03;1.40;;;19.80;99.90;;;;;;5033358;28;20437;-53
2023/08/31 11:05:17;;;;;;;4.45;1.50;;;19.70;99.90;;;;;;5033300;28;20061;-55
2023/08/31 11:07:52;;;;;;;4.18;1.50;;;19.80;99.90;;;;;;5033370;28;20041;-53
2023/08/31 11:10:23;;;;;;;6.43;1.52;;;19.70;99.90;;;;;;5033431;28;20061;-54
2023/08/31 11:12:53;;;;;;;5.05;1.27;;;19.60;99.90;;;;;;5033062;28;20028;-51
2023/08/31 11:15:22;;;;;;;3.55;1.50;;;19.50;99.90;;;;;;5033096;28;20033;-54
2023/08/31 11:17:50;;;;;;;5.10;1.35;;;19.40;99.90;;;;;;5033183;28;20041;-55
2023/08/31 11:20:18;;;;;;;2.42;1.20;;;19.20;99.90;;;;;;5033069;28;20061;-55
2023/08/31 11:22:53;;;;;;;4.20;1.65;;;18.90;99.90;;;;;;5033127;28;20106;-55
2023/08/31 11:25:20;;;;;;;6.82;1.45;;;18.60;99.90;;;;;;5015396;28;20026;-55
2023/08/31 11:27:55;;;;;;;4.22;1.23;;;18.30;99.90;;;;;;5032915;28;20029;-55
2023/08/31 11:30:21;;;;;;;3.05;1.33;;;18.40;99.90;;;;;;5033065;28;20037;-55
2023/08/31 11:32:53;;;;;;;5.15;1.52;;;18.40;99.90;;;;;;5032352;28;20087;-54
2023/08/31 11:35:23;;;;;;;3.55;1.40;;;18.50;99.90;;;;;;5032710;28;20033;-55
2023/08/31 11:37:57;;;;;;;8.55;2.90;;;18.80;99.90;;;;;;5032626;28;20065;-54
2023/08/31 11:40:22;;;;;;;4.40;1.67;;;18.80;99.90;;;;;;5032665;28;20112;-54
2023/08/31 11:42:51;;;;;;;2.60;1.40;;;19.00;99.90;;;;;;5032620;28;20112;-53
2023/08/31 11:45:18;;;;;;;4.72;1.45;;;19.00;99.90;;;;;;5032908;28;20025;-54
2023/08/31 11:47:44;;;;;;;4.05;1.73;;;19.10;99.90;;;;;;5032795;28;20398;-54
2023/08/31 11:50:11;;;;;;;3.10;1.20;;;19.10;99.90;;;;;;5032592;28;20029;-55
2023/08/31 11:52:38;;;;;;;4.57;1.33;;;19.10;99.90;;;;;;5032167;28;20033;-55
2023/08/31 11:55:11;;;;;;;3.50;1.30;;;19.00;99.90;;;;;;5032551;28;20068;-54
2023/08/31 11:57:36;;;;;;;3.53;0.98;;;19.10;99.90;;;;;;5032444;28;20065;-55
2023/08/31 12:00:04;;;;;;;2.58;0.93;;;19.10;99.90;;;;;;5032390;28;20061;-54
2023/08/31 12:02:35;;;;;;;2.75;1.10;;;19.20;99.90;;;;;;5032421;28;20458;-54
2023/08/31 12:05:00;;;;;;;3.08;0.93;;;19.40;99.90;;;;;;5032367;28;20033;-51
2023/08/31 12:07:26;;;;;;;3.60;1.00;;;19.50;99.90;;;;;;5032172;28;20044;-54
2023/08/31 12:09:52;;;;;;;2.72;1.17;;;19.70;99.90;;;;;;5032090;28;20143;-54
2023/08/31 12:12:21;;;;;;;3.65;1.30;;;19.90;99.90;;;;;;5032087;28;20120;-55
2023/08/31 12:14:47;;;;;;;3.08;1.40;;;20.00;99.90;;;;;;5032304;28;20074;-56
2023/08/31 12:17:12;;;;;;;3.83;1.30;;;20.10;99.90;;;;;;5032128;28;20045;-56
2023/08/31 12:19:39;;;;;;;4.55;1.40;;;20.20;99.90;;;;;;5032633;28;20033;-55
2023/08/31 12:22:07;;;;;;;3.22;1.27;;;20.30;99.90;;;;;;5031926;28;20029;-53
2023/08/31 12:24:42;;;;;;;5.43;1.65;;;20.40;99.90;;;;;;5032034;28;20029;-54
2023/08/31 12:27:08;;;;;;;4.35;1.50;;;20.30;99.90;;;;;;5031564;28;20105;-55
2023/08/31 12:29:34;;;;;;;3.65;1.20;;;20.10;99.90;;;;;;5031649;28;20042;-52
2023/08/31 12:32:00;;;;;;;3.15;1.38;;;20.10;99.90;;;;;;5031667;28;20473;-54
2023/08/31 12:34:26;;;;;;;6.28;1.65;;;20.00;99.90;;;;;;5031843;28;20033;-55
2023/08/31 12:36:52;;;;;;;5.78;2.80;;;20.00;99.90;;;;;;5031527;28;20141;-55
2023/08/31 12:39:18;;;;;;;2.75;1.35;;;20.10;99.90;;;;;;5031717;28;20394;-55
2023/08/31 12:41:43;;;;;;;3.33;1.48;;;20.10;99.90;;;;;;5031634;28;20044;-54
2023/08/31 12:44:09;;;;;;;4.75;1.40;;;20.20;99.90;;;;;;5031505;28;20059;-53
2023/08/31 12:46:35;;;;;;;7.90;2.20;;;20.20;99.90;;;;;;5031649;28;20445;-55
2023/08/31 12:49:02;;;;;;;3.80;2.13;;;20.30;99.90;;;;;;5032065;28;20080;-52